sensor_id;sensor_type;location;lat;lon;timestamp;pressure;altitude;pressure_sealevel;temperature;humidity
60725;BME280;59881;36.722;-4.462;2023-09-19T00:00:20;100984.19;;;22.18;44.76
60725;BME280;59881;36.722;-4.462;2023-09-19T00:02:57;100498.00;;;19.20;44.64
60725;BME280;59881;36.722;-4.462;2023-09-19T00:05:28;100978.34;;;22.15;44.70
60725;BME280;59881;36.722;-4.462;2023-09-19T00:07:56;100537.00;;;19.05;44.81
60725;BME280;59881;36.722;-4.462;2023-09-19T00:10:24;100812.53;;;20.64;44.65
60725;BME280;59881;36.722;-4.462;2023-09-19T00:12:55;100981.53;;;22.10;44.83
60725;BME280;59881;36.722;-4.462;2023-09-19T00:15:25;100733.19;;;20.55;44.81
60725;BME280;59881;36.722;-4.462;2023-09-19T00:17:54;100605.72;;;19.80;44.82
60725;BME280;59881;36.722;-4.462;2023-09-19T00:20:20;100963.09;;;22.07;45.01
60725;BME280;59881;36.722;-4.462;2023-09-19T00:22:49;100975.66;;;22.06;44.90
60725;BME280;59881;36.722;-4.462;2023-09-19T00:25:17;101032.16;;;22.05;45.03
60725;BME280;59881;36.722;-4.462;2023-09-19T00:27:43;100670.94;;;20.20;45.19
60725;BME280;59881;36.722;-4.462;2023-09-19T00:30:11;100993.28;;;21.93;45.18
60725;BME280;59881;36.722;-4.462;2023-09-19T00:32:42;100957.13;;;21.72;45.02
60725;BME280;59881;36.722;-4.462;2023-09-19T00:35:08;100875.03;;;21.46;45.09
60725;BME280;59881;36.722;-4.462;2023-09-19T00:37:35;100968.13;;;22.02;45.18
60725;BME280;59881;36.722;-4.462;2023-09-19T00:40:03;101009.41;;;22.01;45.24
60725;BME280;59881;36.722;-4.462;2023-09-19T00:42:30;100837.97;;;20.68;45.22
60725;BME280;59881;36.722;-4.462;2023-09-19T00:44:56;100678.28;;;20.18;45.33
60725;BME280;59881;36.722;-4.462;2023-09-19T00:47:22;101002.84;;;21.95;45.57
60725;BME280;59881;36.722;-4.462;2023-09-19T00:49:48;100864.63;;;21.19;45.49
60725;BME280;59881;36.722;-4.462;2023-09-19T00:52:18;100868.78;;;21.29;45.39
60725;BME280;59881;36.722;-4.462;2023-09-19T00:54:47;100861.28;;;21.08;45.48
60725;BME280;59881;36.722;-4.462;2023-09-19T00:57:14;100949.41;;;21.77;45.82
60725;BME280;59881;36.722;-4.462;2023-09-19T00:59:41;100668.59;;;20.09;45.94
60725;BME280;59881;36.722;-4.462;2023-09-19T01:02:07;100949.03;;;21.80;46.22
60725;BME280;59881;36.722;-4.462;2023-09-19T01:04:33;100636.97;;;19.79;45.93
60725;BME280;59881;36.722;-4.462;2023-09-19T01:06:59;100550.31;;;19.39;46.13
60725;BME280;59881;36.722;-4.462;2023-09-19T01:09:25;100034.28;;;15.93;45.86
60725;BME280;59881;36.722;-4.462;2023-09-19T01:11:58;100894.25;;;21.17;46.27
60725;BME280;59881;36.722;-4.462;2023-09-19T01:17:19;100625.56;;;19.69;46.23
60725;BME280;59881;36.722;-4.462;2023-09-19T01:20:17;100948.72;;;21.67;46.33
60725;BME280;59881;36.722;-4.462;2023-09-19T01:23:10;100943.53;;;21.65;46.57
60725;BME280;59881;36.722;-4.462;2023-09-19T01:26:10;100935.81;;;21.62;46.91
60725;BME280;59881;36.722;-4.462;2023-09-19T01:31:45;100933.81;;;21.56;46.80
60725;BME280;59881;36.722;-4.462;2023-09-19T01:34:12;100859.59;;;21.16;47.05
60725;BME280;59881;36.722;-4.462;2023-09-19T01:36:38;100685.81;;;20.06;47.08
60725;BME280;59881;36.722;-4.462;2023-09-19T01:39:09;100919.75;;;21.46;46.96
60725;BME280;59881;36.722;-4.462;2023-09-19T01:50:07;100916.34;;;21.27;47.71
60725;BME280;59881;36.722;-4.462;2023-09-19T01:52:42;100638.38;;;19.57;47.67
60725;BME280;59881;36.722;-4.462;2023-09-19T01:55:10;100914.00;;;21.16;47.75
60725;BME280;59881;36.722;-4.462;2023-09-19T01:57:58;100438.81;;;18.14;47.58
60725;BME280;59881;36.722;-4.462;2023-09-19T02:00:25;100941.28;;;21.03;48.03
60725;BME280;59881;36.722;-4.462;2023-09-19T02:02:55;100041.56;;;15.73;47.87
60725;BME280;59881;36.722;-4.462;2023-09-19T02:05:24;100539.25;;;18.84;48.27
60725;BME280;59881;36.722;-4.462;2023-09-19T02:07:51;100898.59;;;21.02;48.23
60725;BME280;59881;36.722;-4.462;2023-09-19T02:10:18;100663.41;;;19.56;48.47
60725;BME280;59881;36.722;-4.462;2023-09-19T02:12:43;101019.94;;;21.02;48.41
60725;BME280;59881;36.722;-4.462;2023-09-19T02:15:10;100897.56;;;21.03;48.66
60725;BME280;59881;36.722;-4.462;2023-09-19T02:17:35;100918.31;;;21.01;48.55
60725;BME280;59881;36.722;-4.462;2023-09-19T02:20:01;100032.88;;;15.53;48.45
60725;BME280;59881;36.722;-4.462;2023-09-19T02:22:28;100362.56;;;17.51;48.59
60725;BME280;59881;36.722;-4.462;2023-09-19T02:24:54;100568.16;;;18.70;48.55
60725;BME280;59881;36.722;-4.462;2023-09-19T02:27:23;100149.66;;;16.27;48.49
60725;BME280;59881;36.722;-4.462;2023-09-19T02:29:49;100685.88;;;19.72;48.93
60725;BME280;59881;36.722;-4.462;2023-09-19T02:32:15;100924.19;;;20.88;48.67
60725;BME280;59881;36.722;-4.462;2023-09-19T02:34:43;100713.56;;;19.36;48.59
60725;BME280;59881;36.722;-4.462;2023-09-19T02:37:10;100678.63;;;19.30;48.66
60725;BME280;59881;36.722;-4.462;2023-09-19T02:39:35;100714.28;;;19.81;48.73
60725;BME280;59881;36.722;-4.462;2023-09-19T02:42:01;100867.25;;;20.78;48.52
60725;BME280;59881;36.722;-4.462;2023-09-19T02:44:27;100867.75;;;20.73;48.43
60725;BME280;59881;36.722;-4.462;2023-09-19T02:46:53;100806.91;;;20.33;48.42
60725;BME280;59881;36.722;-4.462;2023-09-19T02:49:19;100615.38;;;18.96;48.18
60725;BME280;59881;36.722;-4.462;2023-09-19T02:51:44;100886.13;;;20.60;48.35
60725;BME280;59881;36.722;-4.462;2023-09-19T02:54:11;100425.38;;;17.97;48.43
60725;BME280;59881;36.722;-4.462;2023-09-19T02:56:37;100806.84;;;20.16;48.40
60725;BME280;59881;36.722;-4.462;2023-09-19T02:59:03;100730.34;;;19.81;47.91
60725;BME280;59881;36.722;-4.462;2023-09-19T03:01:29;100737.03;;;19.85;47.91
60725;BME280;59881;36.722;-4.462;2023-09-19T03:03:54;100730.50;;;19.79;48.22
60725;BME280;59881;36.722;-4.462;2023-09-19T03:06:21;100823.44;;;20.36;48.08
60725;BME280;59881;36.722;-4.462;2023-09-19T03:08:47;100817.75;;;20.31;48.67
60725;BME280;59881;36.722;-4.462;2023-09-19T03:11:14;100583.94;;;18.81;48.69
60725;BME280;59881;36.722;-4.462;2023-09-19T03:13:41;100689.94;;;19.23;49.13
60725;BME280;59881;36.722;-4.462;2023-09-19T03:16:08;100716.34;;;19.61;49.44
60725;BME280;59881;36.722;-4.462;2023-09-19T03:18:34;100363.50;;;17.42;49.40
60725;BME280;59881;36.722;-4.462;2023-09-19T03:21:00;100814.91;;;19.82;49.44
60725;BME280;59881;36.722;-4.462;2023-09-19T03:23:27;100853.94;;;20.09;49.46
60725;BME280;59881;36.722;-4.462;2023-09-19T03:25:53;100811.66;;;20.04;49.94
60725;BME280;59881;36.722;-4.462;2023-09-19T03:28:19;100715.59;;;19.42;49.99
60725;BME280;59881;36.722;-4.462;2023-09-19T03:30:46;100713.91;;;19.41;50.08
60725;BME280;59881;36.722;-4.462;2023-09-19T03:33:12;100779.81;;;19.85;50.49
60725;BME280;59881;36.722;-4.462;2023-09-19T03:35:39;100848.25;;;20.04;50.52
60725;BME280;59881;36.722;-4.462;2023-09-19T03:38:05;100218.75;;;16.27;50.92
60725;BME280;59881;36.722;-4.462;2023-09-19T03:40:30;100854.78;;;20.10;50.35
60725;BME280;59881;36.722;-4.462;2023-09-19T03:42:56;100820.69;;;20.12;50.71
60725;BME280;59881;36.722;-4.462;2023-09-19T03:45:22;100703.09;;;19.43;50.61
60725;BME280;59881;36.722;-4.462;2023-09-19T03:47:47;100580.13;;;18.66;50.44
60725;BME280;59881;36.722;-4.462;2023-09-19T03:50:13;100348.63;;;17.13;50.23
60725;BME280;59881;36.722;-4.462;2023-09-19T03:52:43;100837.75;;;20.11;49.84
60725;BME280;59881;36.722;-4.462;2023-09-19T03:55:09;100628.63;;;18.79;49.80
60725;BME280;59881;36.722;-4.462;2023-09-19T03:57:35;100736.97;;;19.42;49.95
60725;BME280;59881;36.722;-4.462;2023-09-19T04:00:02;100861.03;;;19.92;50.05
60725;BME280;59881;36.722;-4.462;2023-09-19T04:02:27;100846.06;;;20.08;49.76
60725;BME280;59881;36.722;-4.462;2023-09-19T04:04:58;100791.63;;;19.74;50.22
60725;BME280;59881;36.722;-4.462;2023-09-19T04:07:24;100674.63;;;18.55;50.80
60725;BME280;59881;36.722;-4.462;2023-09-19T04:09:51;100811.69;;;19.78;50.93
60725;BME280;59881;36.722;-4.462;2023-09-19T04:12:20;100361.19;;;17.03;51.21
60725;BME280;59881;36.722;-4.462;2023-09-19T04:14:45;100877.00;;;20.02;51.34
60725;BME280;59881;36.722;-4.462;2023-09-19T04:17:11;100896.88;;;19.99;51.90
60725;BME280;59881;36.722;-4.462;2023-09-19T04:19:37;100912.22;;;19.97;51.93
60725;BME280;59881;36.722;-4.462;2023-09-19T04:22:03;100571.44;;;18.12;52.22
60725;BME280;59881;36.722;-4.462;2023-09-19T04:26:54;100934.78;;;19.95;52.55
60725;BME280;59881;36.722;-4.462;2023-09-19T04:29:20;100608.66;;;17.86;52.46
60725;BME280;59881;36.722;-4.462;2023-09-19T04:31:45;100872.94;;;19.98;52.61
60725;BME280;59881;36.722;-4.462;2023-09-19T04:34:11;100872.94;;;19.98;52.73
60725;BME280;59881;36.722;-4.462;2023-09-19T04:36:41;100911.22;;;19.98;52.79
60725;BME280;59881;36.722;-4.462;2023-09-19T04:39:06;100773.63;;;19.32;52.89
60725;BME280;59881;36.722;-4.462;2023-09-19T04:41:32;100394.41;;;16.99;53.18
60725;BME280;59881;36.722;-4.462;2023-09-19T04:43:59;100783.84;;;19.11;53.56
60725;BME280;59881;36.722;-4.462;2023-09-19T04:46:25;100829.53;;;19.52;53.63
60725;BME280;59881;36.722;-4.462;2023-09-19T04:48:50;100923.00;;;19.88;53.73
60725;BME280;59881;36.722;-4.462;2023-09-19T04:51:16;100217.25;;;15.79;53.92
60725;BME280;59881;36.722;-4.462;2023-09-19T04:53:44;100882.75;;;19.89;54.35
60725;BME280;59881;36.722;-4.462;2023-09-19T04:56:09;100881.75;;;19.90;54.51
60725;BME280;59881;36.722;-4.462;2023-09-19T04:58:35;100507.31;;;17.59;54.45
60725;BME280;59881;36.722;-4.462;2023-09-19T05:01:00;100739.94;;;18.69;55.18
60725;BME280;59881;36.722;-4.462;2023-09-19T05:03:28;100504.25;;;17.54;54.80
60725;BME280;59881;36.722;-4.462;2023-09-19T05:05:54;100897.78;;;19.90;55.47
60725;BME280;59881;36.722;-4.462;2023-09-19T05:08:19;100889.78;;;19.90;55.33
60725;BME280;59881;36.722;-4.462;2023-09-19T05:10:45;100551.19;;;17.83;55.28
60725;BME280;59881;36.722;-4.462;2023-09-19T05:13:10;100728.03;;;18.81;55.62
60725;BME280;59881;36.722;-4.462;2023-09-19T05:15:37;100901.81;;;19.86;55.44
60725;BME280;59881;36.722;-4.462;2023-09-19T05:18:03;100855.72;;;19.04;55.42
60725;BME280;59881;36.722;-4.462;2023-09-19T05:20:29;100691.53;;;18.46;55.68
60725;BME280;59881;36.722;-4.462;2023-09-19T05:23:04;100916.94;;;19.77;56.10
60725;BME280;59881;36.722;-4.462;2023-09-19T05:25:33;100912.72;;;19.75;55.80
60725;BME280;59881;36.722;-4.462;2023-09-19T05:28:02;100917.25;;;19.74;56.29
60725;BME280;59881;36.722;-4.462;2023-09-19T05:30:31;100736.81;;;18.20;56.22
60725;BME280;59881;36.722;-4.462;2023-09-19T05:32:57;100665.31;;;17.60;56.31
60725;BME280;59881;36.722;-4.462;2023-09-19T05:35:24;100749.00;;;18.40;56.03
60725;BME280;59881;36.722;-4.462;2023-09-19T05:37:51;100917.31;;;19.64;56.36
60725;BME280;59881;36.722;-4.462;2023-09-19T05:40:17;100748.72;;;17.98;56.24
60725;BME280;59881;36.722;-4.462;2023-09-19T05:42:43;100627.97;;;17.70;56.47
60725;BME280;59881;36.722;-4.462;2023-09-19T05:45:09;100760.97;;;18.54;56.52
60725;BME280;59881;36.722;-4.462;2023-09-19T05:47:40;100728.50;;;18.23;56.95
60725;BME280;59881;36.722;-4.462;2023-09-19T05:50:08;100966.66;;;19.52;57.26
60725;BME280;59881;36.722;-4.462;2023-09-19T05:52:35;100804.75;;;18.79;57.40
60725;BME280;59881;36.722;-4.462;2023-09-19T05:55:05;100557.72;;;17.25;57.24
60725;BME280;59881;36.722;-4.462;2023-09-19T05:57:33;100931.75;;;19.54;57.55
60725;BME280;59881;36.722;-4.462;2023-09-19T05:59:59;100648.38;;;17.79;57.22
60725;BME280;59881;36.722;-4.462;2023-09-19T06:02:24;100933.91;;;19.50;57.64
60725;BME280;59881;36.722;-4.462;2023-09-19T06:04:55;100883.25;;;19.22;57.57
60725;BME280;59881;36.722;-4.462;2023-09-19T06:07:22;100871.19;;;19.18;57.71
60725;BME280;59881;36.722;-4.462;2023-09-19T06:09:48;100889.50;;;19.31;58.00
60725;BME280;59881;36.722;-4.462;2023-09-19T06:12:14;100544.16;;;17.19;57.67
60725;BME280;59881;36.722;-4.462;2023-09-19T06:14:43;100879.75;;;19.22;57.69
60725;BME280;59881;36.722;-4.462;2023-09-19T06:17:09;100937.19;;;19.62;57.82
60725;BME280;59881;36.722;-4.462;2023-09-19T06:19:34;100936.84;;;19.65;57.94
60725;BME280;59881;36.722;-4.462;2023-09-19T06:22:00;100809.91;;;18.91;57.62
60725;BME280;59881;36.722;-4.462;2023-09-19T06:24:25;100944.81;;;19.75;57.91
60725;BME280;59881;36.722;-4.462;2023-09-19T06:26:51;100948.56;;;19.82;57.85
60725;BME280;59881;36.722;-4.462;2023-09-19T06:29:18;100951.25;;;19.90;58.03
60725;BME280;59881;36.722;-4.462;2023-09-19T06:31:43;100837.34;;;19.45;58.29
60725;BME280;59881;36.722;-4.462;2023-09-19T06:34:10;100844.41;;;19.54;57.35
60725;BME280;59881;36.722;-4.462;2023-09-19T06:36:35;101011.84;;;20.25;57.61
60725;BME280;59881;36.722;-4.462;2023-09-19T06:39:01;100951.91;;;20.71;57.51
60725;BME280;59881;36.722;-4.462;2023-09-19T06:41:29;100431.34;;;18.52;54.47
60725;BME280;59881;36.722;-4.462;2023-09-19T06:43:55;100981.19;;;22.13;52.58
60725;BME280;59881;36.722;-4.462;2023-09-19T06:46:21;100937.91;;;22.33;51.47
60725;BME280;59881;36.722;-4.462;2023-09-19T06:48:46;100730.19;;;21.79;50.30
60725;BME280;59881;36.722;-4.462;2023-09-19T06:51:13;100949.38;;;24.04;47.83
60725;BME280;59881;36.722;-4.462;2023-09-19T06:53:41;100979.09;;;24.85;45.49
60725;BME280;59881;36.722;-4.462;2023-09-19T06:56:06;100862.25;;;25.14;43.43
60725;BME280;59881;36.722;-4.462;2023-09-19T06:58:32;100936.47;;;26.45;41.98
60725;BME280;59881;36.722;-4.462;2023-09-19T07:00:57;100883.22;;;26.87;40.21
60725;BME280;59881;36.722;-4.462;2023-09-19T07:03:23;100931.56;;;27.56;39.24
60725;BME280;59881;36.722;-4.462;2023-09-19T07:05:51;100724.97;;;26.51;38.63
60725;BME280;59881;36.722;-4.462;2023-09-19T07:08:18;100592.81;;;26.56;37.58
60725;BME280;59881;36.722;-4.462;2023-09-19T07:10:44;100816.91;;;28.67;36.04
60725;BME280;59881;36.722;-4.462;2023-09-19T07:13:19;100933.69;;;29.86;34.80
60725;BME280;59881;36.722;-4.462;2023-09-19T07:15:45;100965.59;;;30.53;32.97
60725;BME280;59881;36.722;-4.462;2023-09-19T07:18:16;100918.09;;;31.04;31.97
60725;BME280;59881;36.722;-4.462;2023-09-19T07:20:43;100902.72;;;31.75;30.92
60725;BME280;59881;36.722;-4.462;2023-09-19T07:23:18;100899.00;;;32.05;30.38
60725;BME280;59881;36.722;-4.462;2023-09-19T07:25:47;100904.28;;;32.35;29.89
60725;BME280;59881;36.722;-4.462;2023-09-19T07:28:14;100827.66;;;32.20;29.26
60725;BME280;59881;36.722;-4.462;2023-09-19T07:30:39;100906.75;;;33.06;28.43
60725;BME280;59881;36.722;-4.462;2023-09-19T07:33:07;100899.13;;;33.76;27.81
60725;BME280;59881;36.722;-4.462;2023-09-19T07:35:32;100901.59;;;34.38;26.95
60725;BME280;59881;36.722;-4.462;2023-09-19T07:37:58;100883.06;;;34.95;26.57
60725;BME280;59881;36.722;-4.462;2023-09-19T07:40:27;100891.75;;;35.94;24.88
60725;BME280;59881;36.722;-4.462;2023-09-19T07:42:56;100745.78;;;35.61;24.35
60725;BME280;59881;36.722;-4.462;2023-09-19T07:45:22;100777.78;;;35.50;23.68
60725;BME280;59881;36.722;-4.462;2023-09-19T07:47:49;100893.19;;;37.05;22.95
60725;BME280;59881;36.722;-4.462;2023-09-19T07:50:19;100892.81;;;37.84;22.03
60725;BME280;59881;36.722;-4.462;2023-09-19T07:52:45;100898.16;;;38.30;21.67
60725;BME280;59881;36.722;-4.462;2023-09-19T07:55:11;100878.28;;;38.88;20.86
60725;BME280;59881;36.722;-4.462;2023-09-19T07:57:41;100738.84;;;38.34;20.35
60725;BME280;59881;36.722;-4.462;2023-09-19T08:00:08;100759.53;;;39.00;20.45
60725;BME280;59881;36.722;-4.462;2023-09-19T08:02:36;100879.22;;;40.14;19.58
60725;BME280;59881;36.722;-4.462;2023-09-19T08:05:03;100578.13;;;38.88;18.54
60725;BME280;59881;36.722;-4.462;2023-09-19T08:07:32;100743.38;;;40.41;18.14
60725;BME280;59881;36.722;-4.462;2023-09-19T08:09:57;100756.47;;;41.15;17.67
60725;BME280;59881;36.722;-4.462;2023-09-19T08:12:24;100873.78;;;41.04;17.76
60725;BME280;59881;36.722;-4.462;2023-09-19T08:14:49;100876.81;;;40.31;18.79
60725;BME280;59881;36.722;-4.462;2023-09-19T08:17:15;100874.50;;;39.71;19.30
60725;BME280;59881;36.722;-4.462;2023-09-19T08:19:41;100666.59;;;38.57;18.91
60725;BME280;59881;36.722;-4.462;2023-09-19T08:22:10;100882.72;;;40.44;18.86
60725;BME280;59881;36.722;-4.462;2023-09-19T08:24:36;100869.06;;;39.66;18.94
60725;BME280;59881;36.722;-4.462;2023-09-19T08:27:04;100890.06;;;37.94;20.65
60725;BME280;59881;36.722;-4.462;2023-09-19T08:29:31;100866.31;;;38.19;20.49
60725;BME280;59881;36.722;-4.462;2023-09-19T08:31:57;100557.00;;;37.72;19.39
60725;BME280;59881;36.722;-4.462;2023-09-19T08:34:24;100688.47;;;41.00;18.05
60725;BME280;59881;36.722;-4.462;2023-09-19T08:36:55;100774.25;;;42.51;16.68
60725;BME280;59881;36.722;-4.462;2023-09-19T08:39:24;100658.19;;;41.36;17.35
60725;BME280;59881;36.722;-4.462;2023-09-19T08:42:08;100890.16;;;44.05;16.43
60725;BME280;59881;36.722;-4.462;2023-09-19T08:44:37;100869.88;;;45.18;15.84
60725;BME280;59881;36.722;-4.462;2023-09-19T08:47:10;100876.78;;;44.94;15.42
60725;BME280;59881;36.722;-4.462;2023-09-19T08:52:25;100876.06;;;40.45;19.33
60725;BME280;59881;36.722;-4.462;2023-09-19T08:54:57;100875.13;;;41.53;18.57
60725;BME280;59881;36.722;-4.462;2023-09-19T08:57:25;100850.13;;;39.79;19.87
60725;BME280;59881;36.722;-4.462;2023-09-19T08:59:55;100668.13;;;36.39;22.02
60725;BME280;59881;36.722;-4.462;2023-09-19T09:02:22;100884.47;;;36.20;23.20
60725;BME280;59881;36.722;-4.462;2023-09-19T09:04:49;100877.13;;;35.35;24.27
60725;BME280;59881;36.722;-4.462;2023-09-19T09:07:16;100862.44;;;34.33;25.39
60725;BME280;59881;36.722;-4.462;2023-09-19T09:09:42;100836.63;;;33.79;26.57
60725;BME280;59881;36.722;-4.462;2023-09-19T09:12:12;100871.91;;;35.01;25.58
60725;BME280;59881;36.722;-4.462;2023-09-19T09:14:47;100886.38;;;38.24;22.86
60725;BME280;59881;36.722;-4.462;2023-09-19T09:17:16;100856.00;;;40.77;19.66
60725;BME280;59881;36.722;-4.462;2023-09-19T09:19:46;100473.66;;;39.53;18.85
60725;BME280;59881;36.722;-4.462;2023-09-19T09:22:12;100687.69;;;38.67;20.37
60725;BME280;59881;36.722;-4.462;2023-09-19T09:24:54;100895.25;;;38.11;22.18
60725;BME280;59881;36.722;-4.462;2023-09-19T09:27:20;100875.88;;;37.56;23.11
60725;BME280;59881;36.722;-4.462;2023-09-19T09:29:50;100851.16;;;36.69;23.73
60725;BME280;59881;36.722;-4.462;2023-09-19T09:32:28;100897.53;;;36.65;24.33
60725;BME280;59881;36.722;-4.462;2023-09-19T09:34:59;100863.19;;;37.76;23.37
60725;BME280;59881;36.722;-4.462;2023-09-19T09:37:26;100884.00;;;41.36;19.89
60725;BME280;59881;36.722;-4.462;2023-09-19T09:40:00;100883.50;;;44.32;17.83
60725;BME280;59881;36.722;-4.462;2023-09-19T09:42:41;100883.00;;;45.56;15.79
60725;BME280;59881;36.722;-4.462;2023-09-19T09:45:23;100889.53;;;43.68;17.43
60725;BME280;59881;36.722;-4.462;2023-09-19T09:48:15;100888.78;;;45.42;16.64
60725;BME280;59881;36.722;-4.462;2023-09-19T09:50:47;100886.22;;;46.47;15.10
60725;BME280;59881;36.722;-4.462;2023-09-19T09:53:27;100811.75;;;45.93;15.14
60725;BME280;59881;36.722;-4.462;2023-09-19T09:56:07;100885.97;;;47.28;14.75
60725;BME280;59881;36.722;-4.462;2023-09-19T09:58:34;100891.69;;;47.56;14.20
60725;BME280;59881;36.722;-4.462;2023-09-19T10:01:01;100886.97;;;46.77;14.52
60725;BME280;59881;36.722;-4.462;2023-09-19T10:03:46;100881.88;;;49.08;13.17
60725;BME280;59881;36.722;-4.462;2023-09-19T10:06:16;100877.66;;;50.95;11.80
60725;BME280;59881;36.722;-4.462;2023-09-19T10:09:08;100875.03;;;52.39;10.78
60725;BME280;59881;36.722;-4.462;2023-09-19T10:11:45;100871.59;;;52.90;10.34
60725;BME280;59881;36.722;-4.462;2023-09-19T10:14:12;100882.47;;;53.36;10.42
60725;BME280;59881;36.722;-4.462;2023-09-19T10:16:45;100886.13;;;54.03;9.99
60725;BME280;59881;36.722;-4.462;2023-09-19T10:19:23;100871.50;;;54.70;9.75
60725;BME280;59881;36.722;-4.462;2023-09-19T10:21:56;100870.69;;;54.73;10.00
60725;BME280;59881;36.722;-4.462;2023-09-19T10:24:25;100840.09;;;53.73;9.50
60725;BME280;59881;36.722;-4.462;2023-09-19T10:26:53;100878.22;;;52.33;10.17
60725;BME280;59881;36.722;-4.462;2023-09-19T10:29:21;100883.78;;;51.23;10.96
60725;BME280;59881;36.722;-4.462;2023-09-19T10:31:47;100861.72;;;52.32;10.79
60725;BME280;59881;36.722;-4.462;2023-09-19T10:34:17;100871.72;;;51.72;10.36
60725;BME280;59881;36.722;-4.462;2023-09-19T10:36:46;100873.66;;;47.90;13.02
60725;BME280;59881;36.722;-4.462;2023-09-19T10:39:16;100793.41;;;46.34;14.77
60725;BME280;59881;36.722;-4.462;2023-09-19T10:41:53;100888.00;;;42.77;18.48
60725;BME280;59881;36.722;-4.462;2023-09-19T10:44:24;100895.78;;;39.07;22.24
60725;BME280;59881;36.722;-4.462;2023-09-19T10:46:54;100712.22;;;35.33;25.47
60725;BME280;59881;36.722;-4.462;2023-09-19T10:49:20;100984.66;;;34.98;27.58
60725;BME280;59881;36.722;-4.462;2023-09-19T10:51:47;100875.94;;;33.78;29.11
60725;BME280;59881;36.722;-4.462;2023-09-19T10:54:17;100686.19;;;32.35;29.85
60725;BME280;59881;36.722;-4.462;2023-09-19T10:56:49;100912.72;;;33.20;31.17
60725;BME280;59881;36.722;-4.462;2023-09-19T10:59:18;100905.75;;;32.67;31.95
60725;BME280;59881;36.722;-4.462;2023-09-19T11:01:54;100898.53;;;32.20;32.47
60725;BME280;59881;36.722;-4.462;2023-09-19T11:07:10;100901.00;;;30.85;34.21
60725;BME280;59881;36.722;-4.462;2023-09-19T11:12:47;100910.66;;;29.70;34.28
60725;BME280;59881;36.722;-4.462;2023-09-19T11:26:45;100727.00;;;27.49;37.79
60725;BME280;59881;36.722;-4.462;2023-09-19T11:29:30;100900.75;;;28.62;39.03
60725;BME280;59881;36.722;-4.462;2023-09-19T11:31:59;100807.03;;;28.03;39.66
60725;BME280;59881;36.722;-4.462;2023-09-19T11:34:41;100896.63;;;28.46;39.30
60725;BME280;59881;36.722;-4.462;2023-09-19T11:39:37;100926.31;;;28.21;42.58
60725;BME280;59881;36.722;-4.462;2023-09-19T11:45:07;100928.31;;;28.53;45.36
60725;BME280;59881;36.722;-4.462;2023-09-19T11:47:33;100905.53;;;28.60;47.64
60725;BME280;59881;36.722;-4.462;2023-09-19T11:50:01;100900.53;;;28.64;47.48
60725;BME280;59881;36.722;-4.462;2023-09-19T11:52:28;100947.16;;;28.21;49.11
60725;BME280;59881;36.722;-4.462;2023-09-19T11:55:00;100840.00;;;27.60;49.47
60725;BME280;59881;36.722;-4.462;2023-09-19T11:57:28;100600.22;;;25.87;50.13
60725;BME280;59881;36.722;-4.462;2023-09-19T11:59:55;100865.44;;;27.39;51.16
60725;BME280;59881;36.722;-4.462;2023-09-19T12:02:47;100896.41;;;27.63;50.42
60725;BME280;59881;36.722;-4.462;2023-09-19T12:05:16;100840.00;;;27.07;51.49
60725;BME280;59881;36.722;-4.462;2023-09-19T12:07:43;100623.88;;;25.78;51.86
60725;BME280;59881;36.722;-4.462;2023-09-19T12:10:13;100683.44;;;25.84;51.35
60725;BME280;59881;36.722;-4.462;2023-09-19T12:12:47;100788.19;;;26.63;52.06
60725;BME280;59881;36.722;-4.462;2023-09-19T12:15:23;100889.09;;;27.10;53.05
60725;BME280;59881;36.722;-4.462;2023-09-19T12:17:54;100957.63;;;27.57;51.92
60725;BME280;59881;36.722;-4.462;2023-09-19T12:20:19;100803.78;;;26.81;51.84
60725;BME280;59881;36.722;-4.462;2023-09-19T12:22:46;100824.28;;;26.49;52.86
60725;BME280;59881;36.722;-4.462;2023-09-19T12:25:13;100841.00;;;26.17;54.40
60725;BME280;59881;36.722;-4.462;2023-09-19T12:27:45;100434.38;;;23.12;55.32
60725;BME280;59881;36.722;-4.462;2023-09-19T12:30:15;100658.34;;;24.72;55.68
60725;BME280;59881;36.722;-4.462;2023-09-19T12:32:43;100587.34;;;24.30;55.71
60725;BME280;59881;36.722;-4.462;2023-09-19T12:35:10;100678.69;;;24.74;55.54
60725;BME280;59881;36.722;-4.462;2023-09-19T12:37:45;100911.09;;;25.97;55.71
60725;BME280;59881;36.722;-4.462;2023-09-19T12:40:21;100915.53;;;26.53;55.16
60725;BME280;59881;36.722;-4.462;2023-09-19T12:42:54;100869.66;;;26.18;54.44
60725;BME280;59881;36.722;-4.462;2023-09-19T12:45:21;100897.75;;;26.79;53.89
60725;BME280;59881;36.722;-4.462;2023-09-19T12:48:21;100915.66;;;26.87;52.62
60725;BME280;59881;36.722;-4.462;2023-09-19T12:51:05;100659.03;;;25.50;52.39
60725;BME280;59881;36.722;-4.462;2023-09-19T12:53:42;100893.25;;;26.99;50.90
60725;BME280;59881;36.722;-4.462;2023-09-19T12:56:10;100884.28;;;26.86;51.17
60725;BME280;59881;36.722;-4.462;2023-09-19T12:58:55;100885.91;;;26.80;51.31
60725;BME280;59881;36.722;-4.462;2023-09-19T13:01:22;100879.00;;;26.57;50.91
60725;BME280;59881;36.722;-4.462;2023-09-19T13:04:12;100878.59;;;26.19;49.15
60725;BME280;59881;36.722;-4.462;2023-09-19T13:06:38;100569.38;;;24.09;50.26
60725;BME280;59881;36.722;-4.462;2023-09-19T13:09:09;100490.03;;;23.33;50.52
60725;BME280;59881;36.722;-4.462;2023-09-19T13:11:39;100878.38;;;25.51;49.74
60725;BME280;59881;36.722;-4.462;2023-09-19T13:14:26;100865.69;;;25.23;50.03
60725;BME280;59881;36.722;-4.462;2023-09-19T13:17:06;100859.19;;;25.17;49.80
60725;BME280;59881;36.722;-4.462;2023-09-19T13:19:47;100858.16;;;25.18;51.28
60725;BME280;59881;36.722;-4.462;2023-09-19T13:25:08;100872.97;;;25.08;51.46
60725;BME280;59881;36.722;-4.462;2023-09-19T13:27:40;100876.94;;;24.90;51.59
60725;BME280;59881;36.722;-4.462;2023-09-19T13:30:06;100857.72;;;24.93;53.74
60725;BME280;59881;36.722;-4.462;2023-09-19T13:32:32;100848.22;;;24.97;53.35
60725;BME280;59881;36.722;-4.462;2023-09-19T13:34:58;100845.97;;;25.01;51.67